sensor_id;sensor_type;location;lat;lon;timestamp;temperature;humidity
9861;DHT22;4969;52.304;4.968;2024-02-23T00:00:19;8.96;73.87
9861;DHT22;4969;52.304;4.968;2024-02-23T00:02:46;9.13;74.06
9861;DHT22;4969;52.304;4.968;2024-02-23T00:05:12;8.79;71.35
9861;DHT22;4969;52.304;4.968;2024-02-23T00:07:40;9.06;72.80
9861;DHT22;4969;52.304;4.968;2024-02-23T00:10:07;9.13;69.47
9861;DHT22;4969;52.304;4.968;2024-02-23T00:12:34;10.45;79.69
9861;DHT22;4969;52.304;4.968;2024-02-23T00:15:01;10.54;74.60
9861;DHT22;4969;52.304;4.968;2024-02-23T00:17:27;9.78;71.25
9861;DHT22;4969;52.304;4.968;2024-02-23T00:19:54;9.69;73.84
9861;DHT22;4969;52.304;4.968;2024-02-23T00:22:20;11.34;73.84
9861;DHT22;4969;52.304;4.968;2024-02-23T00:24:48;10.17;69.04
9861;DHT22;4969;52.304;4.968;2024-02-23T00:27:15;10.17;69.76
9861;DHT22;4969;52.304;4.968;2024-02-23T00:29:41;9.57;72.20
9861;DHT22;4969;52.304;4.968;2024-02-23T00:32:08;9.78;69.71
9861;DHT22;4969;52.304;4.968;2024-02-23T00:34:34;9.10;71.97
9861;DHT22;4969;52.304;4.968;2024-02-23T00:37:02;9.85;74.10
9861;DHT22;4969;52.304;4.968;2024-02-23T00:39:29;9.82;76.95
9861;DHT22;4969;52.304;4.968;2024-02-23T00:41:58;9.41;66.37
9861;DHT22;4969;52.304;4.968;2024-02-23T00:44:24;9.77;76.96
9861;DHT22;4969;52.304;4.968;2024-02-23T00:46:51;9.24;72.40
9861;DHT22;4969;52.304;4.968;2024-02-23T00:49:17;8.87;71.38
9861;DHT22;4969;52.304;4.968;2024-02-23T00:51:44;9.33;79.23
9861;DHT22;4969;52.304;4.968;2024-02-23T00:54:10;9.26;68.17
9861;DHT22;4969;52.304;4.968;2024-02-23T00:56:37;9.75;72.67
9861;DHT22;4969;52.304;4.968;2024-02-23T00:59:05;9.12;67.18
9861;DHT22;4969;52.304;4.968;2024-02-23T01:01:31;9.41;68.94
9861;DHT22;4969;52.304;4.968;2024-02-23T01:03:58;9.20;70.55
9861;DHT22;4969;52.304;4.968;2024-02-23T01:06:25;9.79;69.43
9861;DHT22;4969;52.304;4.968;2024-02-23T01:08:53;9.58;66.89
9861;DHT22;4969;52.304;4.968;2024-02-23T01:11:20;9.95;73.13
9861;DHT22;4969;52.304;4.968;2024-02-23T01:13:46;10.28;67.66
9861;DHT22;4969;52.304;4.968;2024-02-23T01:16:15;10.54;77.12
9861;DHT22;4969;52.304;4.968;2024-02-23T01:18:41;10.45;71.15
9861;DHT22;4969;52.304;4.968;2024-02-23T01:21:08;10.00;70.31
9861;DHT22;4969;52.304;4.968;2024-02-23T01:23:35;9.47;72.71
9861;DHT22;4969;52.304;4.968;2024-02-23T01:26:01;8.64;67.87
9861;DHT22;4969;52.304;4.968;2024-02-23T01:28:28;8.98;70.06
9861;DHT22;4969;52.304;4.968;2024-02-23T01:30:54;9.37;70.91
9861;DHT22;4969;52.304;4.968;2024-02-23T01:33:22;9.88;69.65
9861;DHT22;4969;52.304;4.968;2024-02-23T01:35:49;9.66;70.81
9861;DHT22;4969;52.304;4.968;2024-02-23T01:38:16;9.89;70.27
9861;DHT22;4969;52.304;4.968;2024-02-23T01:40:45;10.79;79.38
9861;DHT22;4969;52.304;4.968;2024-02-23T01:43:12;10.37;72.22
9861;DHT22;4969;52.304;4.968;2024-02-23T01:45:39;10.51;75.21
9861;DHT22;4969;52.304;4.968;2024-02-23T01:48:06;10.45;71.28
9861;DHT22;4969;52.304;4.968;2024-02-23T01:50:34;10.41;65.62
9861;DHT22;4969;52.304;4.968;2024-02-23T01:53:02;10.67;71.43
9861;DHT22;4969;52.304;4.968;2024-02-23T01:55:29;10.99;76.36
9861;DHT22;4969;52.304;4.968;2024-02-23T01:57:57;10.67;64.99
9861;DHT22;4969;52.304;4.968;2024-02-23T02:00:24;10.24;69.12
9861;DHT22;4969;52.304;4.968;2024-02-23T02:02:50;10.67;70.28
9861;DHT22;4969;52.304;4.968;2024-02-23T02:05:17;10.64;69.31
9861;DHT22;4969;52.304;4.968;2024-02-23T02:07:46;11.26;74.89
9861;DHT22;4969;52.304;4.968;2024-02-23T02:10:13;11.52;75.61
9861;DHT22;4969;52.304;4.968;2024-02-23T02:12:40;11.71;74.42
9861;DHT22;4969;52.304;4.968;2024-02-23T02:15:07;10.75;67.85
9861;DHT22;4969;52.304;4.968;2024-02-23T02:17:34;10.74;71.27
9861;DHT22;4969;52.304;4.968;2024-02-23T02:20:02;12.14;74.87
9861;DHT22;4969;52.304;4.968;2024-02-23T02:22:32;12.55;66.63
9861;DHT22;4969;52.304;4.968;2024-02-23T02:25:00;12.02;70.38
9861;DHT22;4969;52.304;4.968;2024-02-23T02:27:26;11.27;63.07
9861;DHT22;4969;52.304;4.968;2024-02-23T02:29:53;11.57;71.69
9861;DHT22;4969;52.304;4.968;2024-02-23T02:32:19;10.78;70.15
9861;DHT22;4969;52.304;4.968;2024-02-23T02:34:46;11.12;71.14
9861;DHT22;4969;52.304;4.968;2024-02-23T02:37:13;10.68;74.26
9861;DHT22;4969;52.304;4.968;2024-02-23T02:39:39;11.24;74.67
9861;DHT22;4969;52.304;4.968;2024-02-23T02:42:07;11.90;71.58
9861;DHT22;4969;52.304;4.968;2024-02-23T02:44:34;12.38;73.33
9861;DHT22;4969;52.304;4.968;2024-02-23T02:47:01;13.88;64.87
9861;DHT22;4969;52.304;4.968;2024-02-23T02:49:27;13.42;67.00
9861;DHT22;4969;52.304;4.968;2024-02-23T02:51:54;13.31;66.95
9861;DHT22;4969;52.304;4.968;2024-02-23T02:54:20;12.62;64.25
9861;DHT22;4969;52.304;4.968;2024-02-23T02:56:47;12.89;72.10
9861;DHT22;4969;52.304;4.968;2024-02-23T02:59:17;13.93;70.96
9861;DHT22;4969;52.304;4.968;2024-02-23T03:01:44;13.02;63.99
9861;DHT22;4969;52.304;4.968;2024-02-23T03:04:11;12.99;68.97
9861;DHT22;4969;52.304;4.968;2024-02-23T03:06:37;13.34;70.56
9861;DHT22;4969;52.304;4.968;2024-02-23T03:09:04;13.20;68.56
9861;DHT22;4969;52.304;4.968;2024-02-23T03:11:32;14.47;68.70
9861;DHT22;4969;52.304;4.968;2024-02-23T03:13:59;14.35;68.44
9861;DHT22;4969;52.304;4.968;2024-02-23T03:16:26;13.74;67.52
9861;DHT22;4969;52.304;4.968;2024-02-23T03:18:55;14.09;67.86
9861;DHT22;4969;52.304;4.968;2024-02-23T03:21:22;14.14;63.01
9861;DHT22;4969;52.304;4.968;2024-02-23T03:23:48;12.97;60.37
9861;DHT22;4969;52.304;4.968;2024-02-23T03:26:15;11.69;60.61
9861;DHT22;4969;52.304;4.968;2024-02-23T03:28:42;11.71;71.49
9861;DHT22;4969;52.304;4.968;2024-02-23T03:31:08;11.54;64.64
9861;DHT22;4969;52.304;4.968;2024-02-23T03:33:36;12.89;72.41
9861;DHT22;4969;52.304;4.968;2024-02-23T03:36:04;12.85;70.25
9861;DHT22;4969;52.304;4.968;2024-02-23T03:38:30;13.44;69.51
9861;DHT22;4969;52.304;4.968;2024-02-23T03:40:59;14.41;68.32
9861;DHT22;4969;52.304;4.968;2024-02-23T03:43:25;14.06;64.12
9861;DHT22;4969;52.304;4.968;2024-02-23T03:45:52;14.14;65.82
9861;DHT22;4969;52.304;4.968;2024-02-23T03:48:18;13.34;64.57
9861;DHT22;4969;52.304;4.968;2024-02-23T03:50:47;13.47;71.82
9861;DHT22;4969;52.304;4.968;2024-02-23T03:53:13;13.75;63.00
9861;DHT22;4969;52.304;4.968;2024-02-23T03:55:40;13.16;66.89
9861;DHT22;4969;52.304;4.968;2024-02-23T03:58:06;12.97;68.64
9861;DHT22;4969;52.304;4.968;2024-02-23T04:00:33;13.66;66.50
9861;DHT22;4969;52.304;4.968;2024-02-23T04:02:59;14.35;70.22
9861;DHT22;4969;52.304;4.968;2024-02-23T04:05:26;14.10;67.21
9861;DHT22;4969;52.304;4.968;2024-02-23T04:07:54;14.58;63.57
9861;DHT22;4969;52.304;4.968;2024-02-23T04:10:20;14.21;67.37
9861;DHT22;4969;52.304;4.968;2024-02-23T04:12:47;14.06;69.41
9861;DHT22;4969;52.304;4.968;2024-02-23T04:15:13;13.95;66.08
9861;DHT22;4969;52.304;4.968;2024-02-23T04:17:40;13.07;61.94
9861;DHT22;4969;52.304;4.968;2024-02-23T04:20:08;13.88;68.50
9861;DHT22;4969;52.304;4.968;2024-02-23T04:22:36;14.33;66.93
9861;DHT22;4969;52.304;4.968;2024-02-23T04:25:04;14.38;68.28
9861;DHT22;4969;52.304;4.968;2024-02-23T04:27:31;14.28;67.55
9861;DHT22;4969;52.304;4.968;2024-02-23T04:29:58;14.69;66.26
9861;DHT22;4969;52.304;4.968;2024-02-23T04:32:24;13.82;63.68
9861;DHT22;4969;52.304;4.968;2024-02-23T04:34:51;13.13;64.55
9861;DHT22;4969;52.304;4.968;2024-02-23T04:37:18;13.61;68.34
9861;DHT22;4969;52.304;4.968;2024-02-23T04:39:44;14.00;69.55
9861;DHT22;4969;52.304;4.968;2024-02-23T04:42:12;13.77;68.05
9861;DHT22;4969;52.304;4.968;2024-02-23T04:44:41;14.44;69.16
9861;DHT22;4969;52.304;4.968;2024-02-23T04:47:07;14.18;65.54
9861;DHT22;4969;52.304;4.968;2024-02-23T04:49:34;13.66;66.52
9861;DHT22;4969;52.304;4.968;2024-02-23T04:52:00;15.07;67.01
9861;DHT22;4969;52.304;4.968;2024-02-23T04:54:27;14.02;63.82
9861;DHT22;4969;52.304;4.968;2024-02-23T04:56:54;13.37;63.16
9861;DHT22;4969;52.304;4.968;2024-02-23T04:59:22;13.75;66.65
9861;DHT22;4969;52.304;4.968;2024-02-23T05:01:49;13.65;64.05
9861;DHT22;4969;52.304;4.968;2024-02-23T05:04:15;13.63;69.72
9861;DHT22;4969;52.304;4.968;2024-02-23T05:06:42;13.28;68.43
9861;DHT22;4969;52.304;4.968;2024-02-23T05:09:08;14.06;66.34
9861;DHT22;4969;52.304;4.968;2024-02-23T05:11:36;13.33;65.19
9861;DHT22;4969;52.304;4.968;2024-02-23T05:14:02;12.58;65.62
9861;DHT22;4969;52.304;4.968;2024-02-23T05:16:30;13.82;68.61
9861;DHT22;4969;52.304;4.968;2024-02-23T05:18:57;13.66;64.59
9861;DHT22;4969;52.304;4.968;2024-02-23T05:21:23;13.65;69.82
9861;DHT22;4969;52.304;4.968;2024-02-23T05:23:51;13.82;64.60
9861;DHT22;4969;52.304;4.968;2024-02-23T05:26:17;13.31;69.44
9861;DHT22;4969;52.304;4.968;2024-02-23T05:28:44;13.12;66.99
9861;DHT22;4969;52.304;4.968;2024-02-23T05:31:10;13.61;69.14
9861;DHT22;4969;52.304;4.968;2024-02-23T05:33:38;13.26;63.27
9861;DHT22;4969;52.304;4.968;2024-02-23T05:36:05;13.35;66.02
9861;DHT22;4969;52.304;4.968;2024-02-23T05:38:32;12.42;66.03
9861;DHT22;4969;52.304;4.968;2024-02-23T05:40:58;13.02;72.80
9861;DHT22;4969;52.304;4.968;2024-02-23T05:43:26;12.97;67.33
9861;DHT22;4969;52.304;4.968;2024-02-23T05:45:52;13.28;71.58
9861;DHT22;4969;52.304;4.968;2024-02-23T05:48:22;13.13;68.40
9861;DHT22;4969;52.304;4.968;2024-02-23T05:50:50;13.52;71.73
9861;DHT22;4969;52.304;4.968;2024-02-23T05:53:16;13.12;67.99
9861;DHT22;4969;52.304;4.968;2024-02-23T05:55:43;13.20;70.21
9861;DHT22;4969;52.304;4.968;2024-02-23T05:58:09;13.28;68.99
9861;DHT22;4969;52.304;4.968;2024-02-23T06:00:38;13.19;69.51
9861;DHT22;4969;52.304;4.968;2024-02-23T06:03:05;13.50;64.75
9861;DHT22;4969;52.304;4.968;2024-02-23T06:05:31;14.07;67.80
9861;DHT22;4969;52.304;4.968;2024-02-23T06:08:00;14.72;67.69
9861;DHT22;4969;52.304;4.968;2024-02-23T06:10:26;15.11;67.43
9861;DHT22;4969;52.304;4.968;2024-02-23T06:12:53;15.45;62.44
9861;DHT22;4969;52.304;4.968;2024-02-23T06:15:20;15.11;64.08
9861;DHT22;4969;52.304;4.968;2024-02-23T06:17:47;14.89;61.21
9861;DHT22;4969;52.304;4.968;2024-02-23T06:20:13;15.48;65.69
9861;DHT22;4969;52.304;4.968;2024-02-23T06:22:40;14.81;64.05
9861;DHT22;4969;52.304;4.968;2024-02-23T06:25:08;15.61;63.48
9861;DHT22;4969;52.304;4.968;2024-02-23T06:27:37;15.28;62.66
9861;DHT22;4969;52.304;4.968;2024-02-23T06:30:04;15.57;64.80
9861;DHT22;4969;52.304;4.968;2024-02-23T06:32:31;15.76;56.93
9861;DHT22;4969;52.304;4.968;2024-02-23T06:34:57;15.58;64.96
9861;DHT22;4969;52.304;4.968;2024-02-23T06:37:24;15.33;65.41
9861;DHT22;4969;52.304;4.968;2024-02-23T06:39:50;14.95;62.13
9861;DHT22;4969;52.304;4.968;2024-02-23T06:42:21;15.31;64.09
9861;DHT22;4969;52.304;4.968;2024-02-23T06:44:47;15.24;65.33
9861;DHT22;4969;52.304;4.968;2024-02-23T06:47:14;15.26;64.82
9861;DHT22;4969;52.304;4.968;2024-02-23T06:49:41;15.82;58.63
9861;DHT22;4969;52.304;4.968;2024-02-23T06:52:07;15.86;63.34
9861;DHT22;4969;52.304;4.968;2024-02-23T06:54:34;15.85;60.81
9861;DHT22;4969;52.304;4.968;2024-02-23T06:57:01;16.55;62.37
9861;DHT22;4969;52.304;4.968;2024-02-23T06:59:29;16.02;63.55
9861;DHT22;4969;52.304;4.968;2024-02-23T07:01:57;16.65;61.16
9861;DHT22;4969;52.304;4.968;2024-02-23T07:04:24;15.79;57.40
9861;DHT22;4969;52.304;4.968;2024-02-23T07:06:52;15.50;62.13
9861;DHT22;4969;52.304;4.968;2024-02-23T07:09:19;15.82;58.97
9861;DHT22;4969;52.304;4.968;2024-02-23T07:11:45;16.30;62.34
9861;DHT22;4969;52.304;4.968;2024-02-23T07:14:12;16.73;61.35
9861;DHT22;4969;52.304;4.968;2024-02-23T07:16:40;16.06;58.05
9861;DHT22;4969;52.304;4.968;2024-02-23T07:19:07;15.37;62.66
9861;DHT22;4969;52.304;4.968;2024-02-23T07:21:34;15.93;64.14
9861;DHT22;4969;52.304;4.968;2024-02-23T07:24:01;15.75;63.60
9861;DHT22;4969;52.304;4.968;2024-02-23T07:26:27;16.33;62.45
9861;DHT22;4969;52.304;4.968;2024-02-23T07:28:55;16.48;60.61
9861;DHT22;4969;52.304;4.968;2024-02-23T07:31:22;15.81;58.11
9861;DHT22;4969;52.304;4.968;2024-02-23T07:33:50;15.71;63.31
9861;DHT22;4969;52.304;4.968;2024-02-23T07:36:17;16.28;62.94
9861;DHT22;4969;52.304;4.968;2024-02-23T07:38:43;15.55;62.89
9861;DHT22;4969;52.304;4.968;2024-02-23T07:41:11;15.43;60.70
9861;DHT22;4969;52.304;4.968;2024-02-23T07:43:38;16.14;62.37
9861;DHT22;4969;52.304;4.968;2024-02-23T07:46:05;15.90;62.69
9861;DHT22;4969;52.304;4.968;2024-02-23T07:48:34;15.57;58.66
9861;DHT22;4969;52.304;4.968;2024-02-23T07:51:03;15.31;62.40
9861;DHT22;4969;52.304;4.968;2024-02-23T07:53:29;16.28;62.62
9861;DHT22;4969;52.304;4.968;2024-02-23T07:55:56;15.86;62.33
9861;DHT22;4969;52.304;4.968;2024-02-23T07:58:24;15.65;63.66
9861;DHT22;4969;52.304;4.968;2024-02-23T08:00:51;15.90;64.40
9861;DHT22;4969;52.304;4.968;2024-02-23T08:03:18;15.99;63.69
9861;DHT22;4969;52.304;4.968;2024-02-23T08:05:44;16.47;60.36
9861;DHT22;4969;52.304;4.968;2024-02-23T08:08:12;16.03;60.94
9861;DHT22;4969;52.304;4.968;2024-02-23T08:10:39;16.36;62.57
9861;DHT22;4969;52.304;4.968;2024-02-23T08:13:06;16.12;60.41
9861;DHT22;4969;52.304;4.968;2024-02-23T08:15:33;16.27;62.75
9861;DHT22;4969;52.304;4.968;2024-02-23T08:18:01;16.26;57.43
9861;DHT22;4969;52.304;4.968;2024-02-23T08:20:27;15.54;53.88
9861;DHT22;4969;52.304;4.968;2024-02-23T08:22:54;16.10;63.79
9861;DHT22;4969;52.304;4.968;2024-02-23T08:25:22;16.26;61.23
9861;DHT22;4969;52.304;4.968;2024-02-23T08:27:48;16.16;63.16
9861;DHT22;4969;52.304;4.968;2024-02-23T08:30:15;15.41;58.51
9861;DHT22;4969;52.304;4.968;2024-02-23T08:32:42;15.36;59.66
9861;DHT22;4969;52.304;4.968;2024-02-23T08:35:08;15.86;63.73
9861;DHT22;4969;52.304;4.968;2024-02-23T08:37:35;15.24;61.34
9861;DHT22;4969;52.304;4.968;2024-02-23T08:40:01;15.38;61.03
9861;DHT22;4969;52.304;4.968;2024-02-23T08:42:30;15.53;62.98
9861;DHT22;4969;52.304;4.968;2024-02-23T08:44:56;15.68;59.29
9861;DHT22;4969;52.304;4.968;2024-02-23T08:47:23;16.12;63.52
9861;DHT22;4969;52.304;4.968;2024-02-23T08:49:50;15.96;63.47
9861;DHT22;4969;52.304;4.968;2024-02-23T08:52:16;15.27;62.83
9861;DHT22;4969;52.304;4.968;2024-02-23T08:54:43;14.99;62.51
9861;DHT22;4969;52.304;4.968;2024-02-23T08:57:09;15.53;64.89
9861;DHT22;4969;52.304;4.968;2024-02-23T08:59:37;16.02;63.21
9861;DHT22;4969;52.304;4.968;2024-02-23T09:02:04;16.49;58.18
9861;DHT22;4969;52.304;4.968;2024-02-23T09:04:30;15.66;62.62
9861;DHT22;4969;52.304;4.968;2024-02-23T09:06:57;15.16;58.27
9861;DHT22;4969;52.304;4.968;2024-02-23T09:09:24;14.95;63.38
9861;DHT22;4969;52.304;4.968;2024-02-23T09:11:50;14.95;62.49
9861;DHT22;4969;52.304;4.968;2024-02-23T09:14:17;15.38;64.81
9861;DHT22;4969;52.304;4.968;2024-02-23T09:16:44;14.76;66.42
9861;DHT22;4969;52.304;4.968;2024-02-23T09:19:12;14.75;66.59
9861;DHT22;4969;52.304;4.968;2024-02-23T09:21:39;15.20;59.09
9861;DHT22;4969;52.304;4.968;2024-02-23T09:24:06;16.24;64.26
9861;DHT22;4969;52.304;4.968;2024-02-23T09:26:32;15.92;64.06
9861;DHT22;4969;52.304;4.968;2024-02-23T09:28:59;16.24;65.67
9861;DHT22;4969;52.304;4.968;2024-02-23T09:31:26;15.83;66.44
9861;DHT22;4969;52.304;4.968;2024-02-23T09:33:54;15.51;61.14
9861;DHT22;4969;52.304;4.968;2024-02-23T09:36:21;15.87;66.96
9861;DHT22;4969;52.304;4.968;2024-02-23T09:38:48;15.76;63.02
9861;DHT22;4969;52.304;4.968;2024-02-23T09:41:19;15.78;64.07
9861;DHT22;4969;52.304;4.968;2024-02-23T09:43:46;15.85;61.76
9861;DHT22;4969;52.304;4.968;2024-02-23T09:46:15;15.82;65.24
9861;DHT22;4969;52.304;4.968;2024-02-23T09:48:42;15.85;67.95
9861;DHT22;4969;52.304;4.968;2024-02-23T09:51:11;16.80;66.42
9861;DHT22;4969;52.304;4.968;2024-02-23T09:53:38;16.21;65.60
9861;DHT22;4969;52.304;4.968;2024-02-23T09:56:05;15.94;64.71
9861;DHT22;4969;52.304;4.968;2024-02-23T09:58:32;15.89;63.03
9861;DHT22;4969;52.304;4.968;2024-02-23T10:01:02;15.48;66.97
9861;DHT22;4969;52.304;4.968;2024-02-23T10:03:29;15.89;61.05
9861;DHT22;4969;52.304;4.968;2024-02-23T10:05:57;15.21;59.35
9861;DHT22;4969;52.304;4.968;2024-02-23T10:08:24;15.58;69.79
9861;DHT22;4969;52.304;4.968;2024-02-23T10:10:51;16.16;67.03
9861;DHT22;4969;52.304;4.968;2024-02-23T10:13:18;14.93;66.06
9861;DHT22;4969;52.304;4.968;2024-02-23T10:15:46;15.34;65.44
9861;DHT22;4969;52.304;4.968;2024-02-23T10:18:13;16.19;68.40
9861;DHT22;4969;52.304;4.968;2024-02-23T10:20:40;14.83;64.65
9861;DHT22;4969;52.304;4.968;2024-02-23T10:23:07;14.27;64.27
9861;DHT22;4969;52.304;4.968;2024-02-23T10:25:35;15.09;69.03
9861;DHT22;4969;52.304;4.968;2024-02-23T10:28:02;15.41;66.27
9861;DHT22;4969;52.304;4.968;2024-02-23T10:30:28;14.86;59.58
9861;DHT22;4969;52.304;4.968;2024-02-23T10:32:56;15.47;62.77
9861;DHT22;4969;52.304;4.968;2024-02-23T10:35:24;15.65;63.17
9861;DHT22;4969;52.304;4.968;2024-02-23T10:37:52;15.34;64.83
9861;DHT22;4969;52.304;4.968;2024-02-23T10:40:20;14.92;61.52
9861;DHT22;4969;52.304;4.968;2024-02-23T10:42:49;15.61;69.12
9861;DHT22;4969;52.304;4.968;2024-02-23T10:45:19;16.06;64.10
9861;DHT22;4969;52.304;4.968;2024-02-23T10:47:47;15.44;66.31
9861;DHT22;4969;52.304;4.968;2024-02-23T10:50:14;14.72;68.23
9861;DHT22;4969;52.304;4.968;2024-02-23T10:52:41;15.21;59.40
9861;DHT22;4969;52.304;4.968;2024-02-23T10:55:09;15.10;63.20
9861;DHT22;4969;52.304;4.968;2024-02-23T10:57:35;14.02;68.46
9861;DHT22;4969;52.304;4.968;2024-02-23T11:00:04;14.86;66.20
9861;DHT22;4969;52.304;4.968;2024-02-23T11:02:38;14.33;64.74
9861;DHT22;4969;52.304;4.968;2024-02-23T11:05:07;14.88;68.38
9861;DHT22;4969;52.304;4.968;2024-02-23T11:07:38;14.69;67.24
9861;DHT22;4969;52.304;4.968;2024-02-23T11:10:05;14.85;66.47
9861;DHT22;4969;52.304;4.968;2024-02-23T11:12:33;14.05;62.93
9861;DHT22;4969;52.304;4.968;2024-02-23T11:15:00;14.78;66.63
9861;DHT22;4969;52.304;4.968;2024-02-23T11:17:31;15.66;63.78
9861;DHT22;4969;52.304;4.968;2024-02-23T11:19:58;14.34;65.14
9861;DHT22;4969;52.304;4.968;2024-02-23T11:22:25;15.40;69.33
9861;DHT22;4969;52.304;4.968;2024-02-23T11:24:53;14.68;67.13
9861;DHT22;4969;52.304;4.968;2024-02-23T11:27:20;15.69;59.84
9861;DHT22;4969;52.304;4.968;2024-02-23T11:29:46;15.66;62.24
9861;DHT22;4969;52.304;4.968;2024-02-23T11:32:14;15.64;66.17
9861;DHT22;4969;52.304;4.968;2024-02-23T11:34:54;14.92;63.45
9861;DHT22;4969;52.304;4.968;2024-02-23T11:37:20;14.98;69.01
9861;DHT22;4969;52.304;4.968;2024-02-23T11:39:48;14.61;66.23
9861;DHT22;4969;52.304;4.968;2024-02-23T11:42:14;14.69;63.80
9861;DHT22;4969;52.304;4.968;2024-02-23T11:44:41;13.88;64.17
9861;DHT22;4969;52.304;4.968;2024-02-23T11:47:07;14.68;63.80
9861;DHT22;4969;52.304;4.968;2024-02-23T11:49:34;13.90;64.27
9861;DHT22;4969;52.304;4.968;2024-02-23T11:52:02;13.86;61.82
9861;DHT22;4969;52.304;4.968;2024-02-23T11:54:30;13.63;62.27
9861;DHT22;4969;52.304;4.968;2024-02-23T11:56:56;14.00;65.60
9861;DHT22;4969;52.304;4.968;2024-02-23T11:59:24;14.83;66.08
9861;DHT22;4969;52.304;4.968;2024-02-23T12:01:51;13.66;66.26
9861;DHT22;4969;52.304;4.968;2024-02-23T12:04:17;14.31;67.93
9861;DHT22;4969;52.304;4.968;2024-02-23T12:06:44;13.92;66.00
9861;DHT22;4969;52.304;4.968;2024-02-23T12:09:13;13.85;67.68
9861;DHT22;4969;52.304;4.968;2024-02-23T12:11:40;14.21;66.95
9861;DHT22;4969;52.304;4.968;2024-02-23T12:14:07;14.90;64.72
9861;DHT22;4969;52.304;4.968;2024-02-23T12:16:34;14.92;67.63
9861;DHT22;4969;52.304;4.968;2024-02-23T12:19:01;15.44;61.41
9861;DHT22;4969;52.304;4.968;2024-02-23T12:21:28;14.79;67.99
9861;DHT22;4969;52.304;4.968;2024-02-23T12:23:55;14.96;67.00
9861;DHT22;4969;52.304;4.968;2024-02-23T12:26:23;14.73;63.22
9861;DHT22;4969;52.304;4.968;2024-02-23T12:28:50;14.62;69.84
9861;DHT22;4969;52.304;4.968;2024-02-23T12:31:23;14.24;64.19
9861;DHT22;4969;52.304;4.968;2024-02-23T12:33:50;14.95;70.56
9861;DHT22;4969;52.304;4.968;2024-02-23T12:36:16;15.30;64.66
9861;DHT22;4969;52.304;4.968;2024-02-23T12:38:43;15.14;69.13
9861;DHT22;4969;52.304;4.968;2024-02-23T12:41:10;14.62;67.28
9861;DHT22;4969;52.304;4.968;2024-02-23T12:43:39;15.14;58.39
9861;DHT22;4969;52.304;4.968;2024-02-23T12:46:05;14.98;67.98
9861;DHT22;4969;52.304;4.968;2024-02-23T12:48:34;14.82;67.00
9861;DHT22;4969;52.304;4.968;2024-02-23T12:51:00;15.48;66.36
9861;DHT22;4969;52.304;4.968;2024-02-23T12:53:32;15.66;60.22
9861;DHT22;4969;52.304;4.968;2024-02-23T12:56:00;14.27;67.60
9861;DHT22;4969;52.304;4.968;2024-02-23T12:58:27;14.37;65.12
9861;DHT22;4969;52.304;4.968;2024-02-23T13:00:55;15.07;69.31
9861;DHT22;4969;52.304;4.968;2024-02-23T13:03:22;15.55;63.52
9861;DHT22;4969;52.304;4.968;2024-02-23T13:05:49;14.85;57.78
9861;DHT22;4969;52.304;4.968;2024-02-23T13:08:15;15.16;61.69
9861;DHT22;4969;52.304;4.968;2024-02-23T13:10:43;14.61;56.30
9861;DHT22;4969;52.304;4.968;2024-02-23T13:13:09;14.57;61.80
9861;DHT22;4969;52.304;4.968;2024-02-23T13:15:36;14.90;57.36
9861;DHT22;4969;52.304;4.968;2024-02-23T13:18:04;14.71;66.72
9861;DHT22;4969;52.304;4.968;2024-02-23T13:20:31;15.33;58.80
9861;DHT22;4969;52.304;4.968;2024-02-23T13:22:57;15.57;66.73
9861;DHT22;4969;52.304;4.968;2024-02-23T13:25:24;15.20;61.42
9861;DHT22;4969;52.304;4.968;2024-02-23T13:27:50;14.51;62.31
9861;DHT22;4969;52.304;4.968;2024-02-23T13:30:18;14.95;61.79
9861;DHT22;4969;52.304;4.968;2024-02-23T13:32:44;14.38;61.64
9861;DHT22;4969;52.304;4.968;2024-02-23T13:35:12;13.88;59.66
9861;DHT22;4969;52.304;4.968;2024-02-23T13:37:39;14.14;65.93
9861;DHT22;4969;52.304;4.968;2024-02-23T13:40:07;13.34;62.31
9861;DHT22;4969;52.304;4.968;2024-02-23T13:42:35;13.63;63.41
9861;DHT22;4969;52.304;4.968;2024-02-23T13:45:04;13.92;64.79
9861;DHT22;4969;52.304;4.968;2024-02-23T13:47:30;14.31;63.83
9861;DHT22;4969;52.304;4.968;2024-02-23T13:49:57;14.54;61.84
9861;DHT22;4969;52.304;4.968;2024-02-23T13:52:25;14.51;62.87
9861;DHT22;4969;52.304;4.968;2024-02-23T13:54:51;14.35;61.45
9861;DHT22;4969;52.304;4.968;2024-02-23T13:57:18;14.38;69.17
9861;DHT22;4969;52.304;4.968;2024-02-23T13:59:45;14.02;62.13
9861;DHT22;4969;52.304;4.968;2024-02-23T14:02:11;14.62;66.83
9861;DHT22;4969;52.304;4.968;2024-02-23T14:04:38;14.98;64.07
9861;DHT22;4969;52.304;4.968;2024-02-23T14:07:05;14.07;58.53
9861;DHT22;4969;52.304;4.968;2024-02-23T14:09:33;14.48;64.19
9861;DHT22;4969;52.304;4.968;2024-02-23T14:11:59;14.86;63.27
9861;DHT22;4969;52.304;4.968;2024-02-23T14:14:26;15.13;60.83
9861;DHT22;4969;52.304;4.968;2024-02-23T14:16:52;14.35;57.33
9861;DHT22;4969;52.304;4.968;2024-02-23T14:19:19;14.48;59.97
9861;DHT22;4969;52.304;4.968;2024-02-23T14:21:46;14.54;59.14
9861;DHT22;4969;52.304;4.968;2024-02-23T14:24:14;14.83;65.55
9861;DHT22;4969;52.304;4.968;2024-02-23T14:26:41;15.00;63.75
9861;DHT22;4969;52.304;4.968;2024-02-23T14:29:08;15.00;60.32
9861;DHT22;4969;52.304;4.968;2024-02-23T14:31:35;14.76;61.59
9861;DHT22;4969;52.304;4.968;2024-02-23T14:34:01;15.14;62.70
9861;DHT22;4969;52.304;4.968;2024-02-23T14:36:28;14.83;61.97
9861;DHT22;4969;52.304;4.968;2024-02-23T14:38:59;14.50;58.87
9861;DHT22;4969;52.304;4.968;2024-02-23T14:41:25;14.31;62.11
9861;DHT22;4969;52.304;4.968;2024-02-23T14:43:54;14.33;63.03
9861;DHT22;4969;52.304;4.968;2024-02-23T14:46:20;14.27;64.92
9861;DHT22;4969;52.304;4.968;2024-02-23T14:48:47;14.37;59.91
9861;DHT22;4969;52.304;4.968;2024-02-23T14:51:14;14.51;64.60
9861;DHT22;4969;52.304;4.968;2024-02-23T14:53:40;14.65;62.98
9861;DHT22;4969;52.304;4.968;2024-02-23T14:56:07;14.38;61.68
9861;DHT22;4969;52.304;4.968;2024-02-23T14:58:34;14.54;63.54
9861;DHT22;4969;52.304;4.968;2024-02-23T15:01:02;15.45;67.45
9861;DHT22;4969;52.304;4.968;2024-02-23T15:03:29;15.21;65.25
9861;DHT22;4969;52.304;4.968;2024-02-23T15:05:56;15.10;56.83
9861;DHT22;4969;52.304;4.968;2024-02-23T15:08:23;14.42;60.99
9861;DHT22;4969;52.304;4.968;2024-02-23T15:10:49;14.44;59.72
9861;DHT22;4969;52.304;4.968;2024-02-23T15:13:16;14.69;63.52
9861;DHT22;4969;52.304;4.968;2024-02-23T15:15:43;15.06;60.63
9861;DHT22;4969;52.304;4.968;2024-02-23T15:18:11;15.47;65.60
9861;DHT22;4969;52.304;4.968;2024-02-23T15:20:37;15.87;61.88
9861;DHT22;4969;52.304;4.968;2024-02-23T15:23:04;15.06;59.59
9861;DHT22;4969;52.304;4.968;2024-02-23T15:25:31;15.11;61.51
9861;DHT22;4969;52.304;4.968;2024-02-23T15:27:59;15.83;62.42
9861;DHT22;4969;52.304;4.968;2024-02-23T15:30:26;15.16;59.58
9861;DHT22;4969;52.304;4.968;2024-02-23T15:32:53;14.05;63.82
9861;DHT22;4969;52.304;4.968;2024-02-23T15:35:20;14.09;69.31
9861;DHT22;4969;52.304;4.968;2024-02-23T15:37:47;14.69;62.42
9861;DHT22;4969;52.304;4.968;2024-02-23T15:40:13;14.51;60.80
9861;DHT22;4969;52.304;4.968;2024-02-23T15:42:40;14.45;63.01
9861;DHT22;4969;52.304;4.968;2024-02-23T15:45:07;14.40;68.28
9861;DHT22;4969;52.304;4.968;2024-02-23T15:47:34;14.26;60.63
9861;DHT22;4969;52.304;4.968;2024-02-23T15:50:01;14.71;63.66
9861;DHT22;4969;52.304;4.968;2024-02-23T15:52:28;14.14;63.10
9861;DHT22;4969;52.304;4.968;2024-02-23T15:54:55;15.10;68.11
9861;DHT22;4969;52.304;4.968;2024-02-23T15:57:22;14.62;60.19
9861;DHT22;4969;52.304;4.968;2024-02-23T15:59:48;13.72;57.74